De Kalb, Texas
Current Conditions -  °F | °C
As of 12:15 AM on Wednesday 22 Oct 2014 (Local Time) from K4O4 Reporting Station
Clear Clear  
Wind Chill: 63°   Ceiling: Unl
Heat Index: 63°   Visibility: 5mi
Dew Point: 61°   Wind: 5mph
Humidity: 94%   Direction: 90°E
Pressure: 30.09"   Gusts: NA
Location:  33.51°N, 94.62°W
Report Text: K4O4 220515Z AUTO 09004KT 5SM CLR 17/16 A3009 RMK AO2
Loading
Personal Weather Stations






























Interactive Weather Map
Tropical Storm Tracking
New forecast layout! Learn more

10-Day Weather Forecast

Advertisements
Track Severe Weather on mobile